LAN435 SAME-SCEL
Flight info
| Callsign | LAN435 |
|---|---|
| Flight time | N/A |
| Altitude | 24000 |
| Route | UMKAL1G UMKAL UMKAL7C |
| Aircraft | A320/M-SDE3FGHIRWY/LB1 |
Departure
| Time | 2026-04-26 02:57 |
|---|---|
| Airport | Governor Francisco Gabrielli International Airport (SAME) |
Arrival
| Time | N/A |
|---|---|
| Airport | Comodoro Arturo Merino Benítez International Airport (SCEL) |
| Time | Latitude | Longitude | Altitude | Speed | Heading |
|---|---|---|---|---|---|
| 2026-04-26 02:39 | -32.82764 | -68.79778 | 2344 ft | 0 kts | 265° |
| 2026-04-26 02:50 | -32.82764 | -68.79772 | 2343 ft | 2 kts | 265° |
| 2026-04-26 02:50 | -32.82762 | -68.79748 | 2341 ft | 3 kts | 265° |
| 2026-04-26 02:50 | -32.82761 | -68.79725 | 2341 ft | 3 kts | 270° |
| 2026-04-26 02:51 | -32.82760 | -68.79709 | 2343 ft | 3 kts | 331° |
| 2026-04-26 02:51 | -32.82763 | -68.79708 | 2342 ft | 1 kts | 1° |
| 2026-04-26 02:51 | -32.82779 | -68.79708 | 2343 ft | 2 kts | 1° |
| 2026-04-26 02:51 | -32.82782 | -68.79708 | 2343 ft | 0 kts | 1° |
| 2026-04-26 02:53 | -32.82772 | -68.79708 | 2344 ft | 6 kts | 1° |
| 2026-04-26 02:53 | -32.82715 | -68.79706 | 2344 ft | 9 kts | 1° |
| 2026-04-26 02:54 | -32.82675 | -68.79681 | 2344 ft | 6 kts | 92° |
| 2026-04-26 02:54 | -32.82675 | -68.79611 | 2344 ft | 14 kts | 89° |
| 2026-04-26 02:54 | -32.82631 | -68.79510 | 2345 ft | 15 kts | 23° |
| 2026-04-26 02:54 | -32.82523 | -68.79501 | 2344 ft | 16 kts | 1° |
| 2026-04-26 02:55 | -32.82403 | -68.79500 | 2344 ft | 18 kts | 0° |
| 2026-04-26 02:55 | -32.82274 | -68.79496 | 2344 ft | 20 kts | 2° |
| 2026-04-26 02:55 | -32.82133 | -68.79493 | 2344 ft | 21 kts | 1° |
| 2026-04-26 02:55 | -32.81980 | -68.79489 | 2344 ft | 22 kts | 7° |
| 2026-04-26 02:56 | -32.81898 | -68.79398 | 2344 ft | 17 kts | 89° |
| 2026-04-26 02:56 | -32.81975 | -68.79283 | 2343 ft | 19 kts | 156° |
| 2026-04-26 02:56 | -32.82134 | -68.79270 | 2343 ft | 44 kts | 181° |
| 2026-04-26 02:56 | -32.82734 | -68.79282 | 2349 ft | 124 kts | 181° |
| 2026-04-26 02:57 | -32.83814 | -68.79304 | 2367 ft | 179 kts | 181° |
| 2026-04-26 02:57 | -32.85076 | -68.79335 | 3062 ft | 180 kts | 180° |
| 2026-04-26 02:57 | -32.86329 | -68.79351 | 3882 ft | 180 kts | 180° |
| 2026-04-26 02:57 | -32.87617 | -68.79363 | 4250 ft | 195 kts | 181° |
| 2026-04-26 02:58 | -32.89049 | -68.79375 | 4449 ft | 218 kts | 181° |
| 2026-04-26 02:58 | -32.90663 | -68.79303 | 4701 ft | 244 kts | 167° |
| 2026-04-26 02:58 | -32.92165 | -68.78264 | 5038 ft | 266 kts | 129° |
| 2026-04-26 02:58 | -32.92963 | -68.76247 | 5638 ft | 275 kts | 101° |
| 2026-04-26 02:59 | -32.93214 | -68.73994 | 6469 ft | 277 kts | 93° |
| 2026-04-26 02:59 | -32.93329 | -68.71685 | 7279 ft | 281 kts | 92° |
| 2026-04-26 02:59 | -32.93472 | -68.69347 | 8049 ft | 286 kts | 95° |
| 2026-04-26 02:59 | -32.93699 | -68.66973 | 8816 ft | 290 kts | 98° |
| 2026-04-26 03:00 | -32.94009 | -68.64572 | 9577 ft | 295 kts | 100° |
| 2026-04-26 03:00 | -32.94380 | -68.62154 | 10287 ft | 300 kts | 102° |
| 2026-04-26 03:00 | -32.94801 | -68.59647 | 10596 ft | 321 kts | 103° |
| 2026-04-26 03:00 | -32.95270 | -68.56984 | 10900 ft | 338 kts | 103° |
| 2026-04-26 03:01 | -32.95766 | -68.54198 | 11470 ft | 345 kts | 103° |
| 2026-04-26 03:01 | -32.96267 | -68.51380 | 12085 ft | 351 kts | 103° |
| 2026-04-26 03:01 | -32.96523 | -68.48475 | 12692 ft | 359 kts | 86° |
| 2026-04-26 03:01 | -32.95910 | -68.45581 | 13287 ft | 365 kts | 64° |
| 2026-04-26 03:02 | -32.94410 | -68.43150 | 13890 ft | 368 kts | 39° |
| 2026-04-26 03:02 | -32.92226 | -68.41589 | 14399 ft | 367 kts | 15° |
| 2026-04-26 03:02 | -32.89730 | -68.41132 | 14912 ft | 363 kts | 352° |
| 2026-04-26 03:02 | -32.87300 | -68.41800 | 15445 ft | 356 kts | 330° |
| 2026-04-26 03:03 | -32.85298 | -68.43432 | 15989 ft | 347 kts | 308° |
| 2026-04-26 03:03 | -32.84328 | -68.44916 | 16353 ft | 342 kts | 295° |
| 2026-04-26 03:03 | -32.83435 | -68.47495 | 16953 ft | 338 kts | 283° |
| 2026-04-26 03:03 | -32.82831 | -68.50195 | 17571 ft | 336 kts | 275° |
| 2026-04-26 03:04 | -32.82635 | -68.52977 | 17878 ft | 343 kts | 265° |
| 2026-04-26 03:04 | -32.82715 | -68.55849 | 18096 ft | 355 kts | 264° |
| 2026-04-26 03:04 | -32.82804 | -68.58806 | 18586 ft | 360 kts | 264° |
| 2026-04-26 03:04 | -32.82884 | -68.61794 | 19141 ft | 363 kts | 264° |
| 2026-04-26 03:05 | -32.82961 | -68.64804 | 19724 ft | 365 kts | 264° |
| 2026-04-26 03:05 | -32.83035 | -68.67830 | 20327 ft | 366 kts | 265° |
| 2026-04-26 03:05 | -32.83105 | -68.70865 | 20883 ft | 368 kts | 265° |
| 2026-04-26 03:05 | -32.83171 | -68.73909 | 21419 ft | 370 kts | 265° |
| 2026-04-26 03:06 | -32.83237 | -68.76983 | 21943 ft | 371 kts | 265° |
| 2026-04-26 03:06 | -32.83308 | -68.80060 | 22455 ft | 373 kts | 265° |
| 2026-04-26 03:06 | -32.83400 | -68.83146 | 22935 ft | 375 kts | 264° |
| 2026-04-26 03:06 | -32.83516 | -68.86241 | 23401 ft | 376 kts | 263° |
| 2026-04-26 03:07 | -32.83642 | -68.89361 | 23837 ft | 377 kts | 263° |
| 2026-04-26 03:07 | -32.83766 | -68.92485 | 24003 ft | 379 kts | 264° |
| 2026-04-26 03:07 | -32.83890 | -68.95649 | 24052 ft | 387 kts | 264° |
| 2026-04-26 03:07 | -32.84005 | -68.98817 | 24053 ft | 389 kts | 265° |
| 2026-04-26 03:08 | -32.84119 | -69.02080 | 24047 ft | 391 kts | 264° |
| 2026-04-26 03:08 | -32.84228 | -69.05262 | 24048 ft | 391 kts | 264° |
| 2026-04-26 03:08 | -32.84338 | -69.08497 | 24046 ft | 391 kts | 264° |
| 2026-04-26 03:08 | -32.84450 | -69.11735 | 24042 ft | 392 kts | 264° |
| 2026-04-26 03:09 | -32.84561 | -69.14960 | 24056 ft | 391 kts | 264° |
| 2026-04-26 03:09 | -32.84675 | -69.18200 | 24058 ft | 391 kts | 264° |
| 2026-04-26 03:09 | -32.84809 | -69.21419 | 24046 ft | 391 kts | 263° |
| 2026-04-26 03:09 | -32.84963 | -69.24645 | 24049 ft | 391 kts | 263° |
| 2026-04-26 03:10 | -32.85124 | -69.27869 | 24061 ft | 389 kts | 263° |
| 2026-04-26 03:10 | -32.85288 | -69.31091 | 24065 ft | 389 kts | 263° |
| 2026-04-26 03:10 | -32.85449 | -69.34313 | 24068 ft | 391 kts | 263° |
| 2026-04-26 03:10 | -32.85605 | -69.37543 | 24068 ft | 390 kts | 263° |
| 2026-04-26 03:11 | -32.85755 | -69.40763 | 24117 ft | 391 kts | 263° |
| 2026-04-26 03:11 | -32.85904 | -69.43993 | 24107 ft | 389 kts | 263° |
| 2026-04-26 03:11 | -32.86049 | -69.47202 | 24116 ft | 392 kts | 263° |
| 2026-04-26 03:11 | -32.86194 | -69.50439 | 24115 ft | 392 kts | 263° |
| 2026-04-26 03:12 | -32.86339 | -69.53683 | 24221 ft | 391 kts | 263° |
| 2026-04-26 03:12 | -32.86482 | -69.56878 | 24192 ft | 385 kts | 263° |
| 2026-04-26 03:12 | -32.86623 | -69.60049 | 24176 ft | 384 kts | 263° |
| 2026-04-26 03:12 | -32.86763 | -69.63211 | 24197 ft | 384 kts | 263° |
| 2026-04-26 03:13 | -32.86903 | -69.66371 | 24238 ft | 382 kts | 263° |
| 2026-04-26 03:13 | -32.87044 | -69.69539 | 24240 ft | 382 kts | 263° |
| 2026-04-26 03:13 | -32.87182 | -69.72692 | 24239 ft | 382 kts | 263° |
| 2026-04-26 03:13 | -32.87318 | -69.75842 | 24239 ft | 382 kts | 263° |
| 2026-04-26 03:14 | -32.87453 | -69.78999 | 24239 ft | 381 kts | 263° |
| 2026-04-26 03:14 | -32.87584 | -69.82135 | 24273 ft | 380 kts | 263° |
| 2026-04-26 03:14 | -32.87715 | -69.85288 | 24276 ft | 380 kts | 263° |
| 2026-04-26 03:14 | -32.87845 | -69.88423 | 24277 ft | 381 kts | 263° |
| 2026-04-26 03:15 | -32.87978 | -69.91586 | 24256 ft | 382 kts | 263° |
| 2026-04-26 03:15 | -32.88113 | -69.94727 | 24264 ft | 382 kts | 263° |
| 2026-04-26 03:15 | -32.88249 | -69.97901 | 24260 ft | 383 kts | 263° |
| 2026-04-26 03:15 | -32.88250 | -70.01055 | 24246 ft | 383 kts | 270° |
| 2026-04-26 03:16 | -32.87972 | -70.04192 | 23952 ft | 376 kts | 272° |
| 2026-04-26 03:16 | -32.87680 | -70.07269 | 23292 ft | 373 kts | 271° |
| 2026-04-26 03:16 | -32.87393 | -70.10318 | 22702 ft | 369 kts | 272° |
| 2026-04-26 03:16 | -32.87115 | -70.13306 | 22152 ft | 368 kts | 272° |
| 2026-04-26 03:17 | -32.86834 | -70.16349 | 21588 ft | 366 kts | 272° |
| 2026-04-26 03:17 | -32.86561 | -70.19317 | 21065 ft | 363 kts | 272° |
| 2026-04-26 03:17 | -32.86287 | -70.22298 | 20502 ft | 361 kts | 272° |
| 2026-04-26 03:17 | -32.86012 | -70.25253 | 20017 ft | 358 kts | 272° |
| 2026-04-26 03:18 | -32.85738 | -70.28193 | 19517 ft | 358 kts | 272° |
| 2026-04-26 03:18 | -32.85463 | -70.31130 | 19006 ft | 358 kts | 273° |
| 2026-04-26 03:18 | -32.85188 | -70.34083 | 18469 ft | 359 kts | 273° |